Sealand Guayaquil — A8QP3 — position and weather

sailwx.info

Track history (hours):
 
Tides and Currents Weather Stations Pressure Air Temp Water Temp Dewpoint Dewpoint Depression Visibility Wind Speed Wind Dir Waves Ship Positions

Sealand Guayaquil

Last reported at 2017-Sep-14 18:18 UTC. Time now 2017-Sep-20 21:55 UTC.
Position N 32°22' W 117°26'.

Length 209 m; draft 8.9 m.

Type: Cargo ship. MMSI: 636091626.

Date/timePositionNaut miles runAvg speedWind from/ knotsBaromVisibWave heightAir tempDewpointWater temp
2017-Sep-14 18:18N 32°22' W 117°26'614.3
2017-Sep-14 17:52N 32°27' W 117°32'514.4
2017-Sep-14 17:30N 32°30' W 117°36'714.7
2017-Sep-14 17:00N 32°35' W 117°43'714.5
2017-Sep-14 16:30N 32°41' W 117°47'714.8
2017-Sep-14 16:01N 32°48' W 117°51'714.4
2017-Sep-14 15:30N 32°55' W 117°54'714.5
2017-Sep-14 15:00N 33°01' W 117°57'815.0
2017-Sep-14 14:30N 33°08' W 118°01'814.7
2017-Sep-14 13:59N 33°15' W 118°05'714.4
2017-Sep-14 13:29N 33°22' W 118°08'712.3
2017-Sep-14 12:57N 33°28' W 118°10'811.7
2017-Sep-14 12:16N 33°36' W 118°14'511.1
2017-Sep-14 11:50N 33°41' W 118°15'2 7.3
2017-Sep-14 11:30N 33°43' W 118°16'1 1.3
2017-Sep-14 10:38N 33°44' W 118°15'0 0.0
2017-Sep-14 10:14N 33°44' W 118°15'0 0.0
2017-Sep-14 09:56N 33°44' W 118°15'0 0.0
2017-Sep-14 09:26N 33°44' W 118°15'0 0.0
2017-Sep-14 08:56N 33°44' W 118°15'0 0.0
2017-Sep-14 08:26N 33°44' W 118°15'0 0.0
2017-Sep-14 07:56N 33°44' W 118°15'0 0.0
2017-Sep-14 07:26N 33°44' W 118°15'0 0.0
2017-Sep-14 05:38N 33°44' W 118°15'0 0.0
2017-Sep-14 05:26N 33°44' W 118°15'0 0.0
2017-Sep-14 04:56N 33°44' W 118°15'0 0.0
2017-Sep-14 04:26N 33°44' W 118°15'0 0.0
2017-Sep-14 03:56N 33°44' W 118°15'0 0.0
2017-Sep-14 03:20N 33°44' W 118°15'0 0.0
2017-Sep-14 02:50N 33°44' W 118°15'0 0.0
2017-Sep-14 02:26N 33°44' W 118°15'0 0.0
2017-Sep-14 01:50N 33°44' W 118°15'0 0.0
2017-Sep-14 01:26N 33°44' W 118°15'0 0.0
2017-Sep-14 00:56N 33°44' W 118°15'0 0.0
2017-Sep-14 00:26N 33°44' W 118°15'0 0.0
2017-Sep-13 23:56N 33°44' W 118°15'0 0.0
2017-Sep-13 23:26N 33°44' W 118°15'0 0.0
2017-Sep-13 22:50N 33°44' W 118°15'0 0.0
2017-Sep-13 22:26N 33°44' W 118°15'0 0.0
2017-Sep-13 21:56N 33°44' W 118°15'0 0.0
2017-Sep-13 21:23N 33°44' W 118°15'0 0.0
2017-Sep-13 20:56N 33°44' W 118°15'0 0.0
2017-Sep-13 20:26N 33°44' W 118°15'0 0.0
2017-Sep-13 19:56N 33°44' W 118°15'0 0.0
2017-Sep-13 19:26N 33°44' W 118°15'0 0.0
2017-Sep-13 18:50N 33°44' W 118°15'0 0.0
2017-Sep-13 18:26N 33°44' W 118°15'0 0.0
2017-Sep-13 17:56N 33°44' W 118°15'0 0.0
2017-Sep-13 17:26N 33°44' W 118°15'0 0.0
2017-Sep-13 16:56N 33°44' W 118°15'0 0.0
2017-Sep-13 16:26N 33°44' W 118°15'0 0.0
2017-Sep-13 15:50N 33°44' W 118°15'0 0.0
2017-Sep-13 15:26N 33°44' W 118°15'0 0.0
2017-Sep-13 14:56N 33°44' W 118°15'0 0.0
2017-Sep-13 14:26N 33°44' W 118°15'0 0.0
2017-Sep-13 13:56N 33°44' W 118°15'0 0.0
2017-Sep-13 13:26N 33°44' W 118°15'0 0.0
2017-Sep-13 12:44N 33°44' W 118°15'0 0.0
2017-Sep-13 12:14N 33°44' W 118°15'0 0.0
2017-Sep-13 11:50N 33°44' W 118°15'0 0.0
2017-Sep-13 11:26N 33°44' W 118°15'0 0.0
2017-Sep-13 10:56N 33°44' W 118°15'0 0.0
2017-Sep-13 10:26N 33°44' W 118°15'0 0.0
2017-Sep-13 10:00N 33°44' W 118°15'1 1.2
2017-Sep-13 09:30N 33°44' W 118°16'2 4.4
2017-Sep-13 09:00N 33°42' W 118°14'4 7.6
2017-Sep-13 08:29N 33°38' W 118°14'6 9.3
2017-Sep-13 07:52N 33°36' W 118°21'4 9.7
2017-Sep-13 07:28N 33°38' W 118°25'5 9.6
2017-Sep-13 07:00N 33°40' W 118°30'5 9.8
2017-Sep-13 06:29N 33°43' W 118°35'510.0
2017-Sep-13 05:59N 33°45' W 118°40'5 9.7
2017-Sep-13 05:30N 33°48' W 118°45'510.0
2017-Sep-13 05:00N 33°50' W 118°51'510.2
2017-Sep-13 04:30N 33°53' W 118°56'510.0
2017-Sep-13 04:00N 33°55' W 119°01'5 9.8
2017-Sep-13 03:30N 33°58' W 119°06'5 9.9
2017-Sep-13 03:00N 34°00' W 119°11'5 9.9
2017-Sep-13 02:30N 34°04' W 119°16'5 9.8
2017-Sep-13 02:00N 34°08' W 119°13'1 0.9
2017-Sep-13 00:55N 34°09' W 119°12'0 0.0
2017-Sep-12 15:31N 34°09' W 119°12'0 0.0
2017-Sep-12 15:22N 34°09' W 119°12'0 0.0
2017-Sep-12 14:10N 34°09' W 119°12'0 0.0
2017-Sep-12 13:58N 34°09' W 119°12'1 1.5
2017-Sep-12 13:30N 34°08' W 119°13'3 6.6
2017-Sep-12 13:00N 34°06' W 119°15'4 8.6
2017-Sep-12 12:30N 34°03' W 119°11'611.1
2017-Sep-12 12:00N 34°00' W 119°06'510.9
2017-Sep-12 11:30N 33°57' W 118°60'611.0
2017-Sep-12 11:00N 33°54' W 118°54'611.3
2017-Sep-12 10:30N 33°52' W 118°48'611.6
2017-Sep-12 10:00N 33°49' W 118°42'611.9
2017-Sep-12 09:30N 33°46' W 118°36'611.9
2017-Sep-12 09:00N 33°43' W 118°30'611.9
2017-Sep-12 08:30N 33°40' W 118°24'611.5
2017-Sep-12 08:00N 33°38' W 118°17'511.0
2017-Sep-12 07:30N 33°36' W 118°11'510.8
2017-Sep-12 07:00N 33°32' W 118°08'611.5
2017-Sep-12 06:30N 33°26' W 118°06'611.7
2017-Sep-12 06:00N 33°21' W 118°03'611.8
2017-Sep-12 05:30N 33°15' W 118°01'611.8
2017-Sep-12 05:00N 33°10' W 117°59'611.8
2017-Sep-12 04:30N 33°04' W 117°57'611.5
2017-Sep-12 04:00N 32°58' W 117°54'611.6
2017-Sep-12 03:30N 32°53' W 117°52'612.1
2017-Sep-12 03:00N 32°47' W 117°50'612.2
2017-Sep-12 02:30N 32°42' W 117°47'611.8
2017-Sep-12 02:00N 32°36' W 117°45'611.6
2017-Sep-12 01:30N 32°30' W 117°43'611.7
2017-Sep-12 01:00N 32°25' W 117°40'611.8
2017-Sep-12 00:30N 32°19' W 117°38'611.6
2017-Sep-12 00:00N 32°14' W 117°36'611.7
2017-Sep-11 23:30N 32°08' W 117°34'6 9.4
2017-Sep-11 22:52N 32°03' W 117°31'615.2
2017-Sep-11 22:27N 31°57' W 117°29'  
Track history (hours):
 
Tides and Currents Weather Stations Pressure Air Temp Water Temp Dewpoint Dewpoint Depression Visibility Wind Speed Wind Dir Waves Ship Positions

Sealand Guayaquil

Last reported at 2017-Sep-14 18:18 UTC. Time now 2017-Sep-20 21:55 UTC.
Position N 32°22' W 117°26'.

Length 209 m; draft 8.9 m.

Type: Cargo ship. MMSI: 636091626.

Date/timePositionNaut miles runAvg speedWind from/ knotsBaromVisibWave heightAir tempDewpointWater temp
2017-Sep-14 18:18N 32°22' W 117°26'614.3
2017-Sep-14 17:52N 32°27' W 117°32'514.4
2017-Sep-14 17:30N 32°30' W 117°36'714.7
2017-Sep-14 17:00N 32°35' W 117°43'714.5
2017-Sep-14 16:30N 32°41' W 117°47'714.8
2017-Sep-14 16:01N 32°48' W 117°51'714.4
2017-Sep-14 15:30N 32°55' W 117°54'714.5
2017-Sep-14 15:00N 33°01' W 117°57'815.0
2017-Sep-14 14:30N 33°08' W 118°01'814.7
2017-Sep-14 13:59N 33°15' W 118°05'714.4
2017-Sep-14 13:29N 33°22' W 118°08'712.3
2017-Sep-14 12:57N 33°28' W 118°10'811.7
2017-Sep-14 12:16N 33°36' W 118°14'511.1
2017-Sep-14 11:50N 33°41' W 118°15'2 7.3
2017-Sep-14 11:30N 33°43' W 118°16'1 1.3
2017-Sep-14 10:38N 33°44' W 118°15'0 0.0
2017-Sep-14 10:14N 33°44' W 118°15'0 0.0
2017-Sep-14 09:56N 33°44' W 118°15'0 0.0
2017-Sep-14 09:26N 33°44' W 118°15'0 0.0
2017-Sep-14 08:56N 33°44' W 118°15'0 0.0
2017-Sep-14 08:26N 33°44' W 118°15'0 0.0
2017-Sep-14 07:56N 33°44' W 118°15'0 0.0
2017-Sep-14 07:26N 33°44' W 118°15'0 0.0
2017-Sep-14 05:38N 33°44' W 118°15'0 0.0
2017-Sep-14 05:26N 33°44' W 118°15'0 0.0
2017-Sep-14 04:56N 33°44' W 118°15'0 0.0
2017-Sep-14 04:26N 33°44' W 118°15'0 0.0
2017-Sep-14 03:56N 33°44' W 118°15'0 0.0
2017-Sep-14 03:20N 33°44' W 118°15'0 0.0
2017-Sep-14 02:50N 33°44' W 118°15'0 0.0
2017-Sep-14 02:26N 33°44' W 118°15'0 0.0
2017-Sep-14 01:50N 33°44' W 118°15'0 0.0
2017-Sep-14 01:26N 33°44' W 118°15'0 0.0
2017-Sep-14 00:56N 33°44' W 118°15'0 0.0
2017-Sep-14 00:26N 33°44' W 118°15'0 0.0
2017-Sep-13 23:56N 33°44' W 118°15'0 0.0
2017-Sep-13 23:26N 33°44' W 118°15'0 0.0
2017-Sep-13 22:50N 33°44' W 118°15'0 0.0
2017-Sep-13 22:26N 33°44' W 118°15'0 0.0
2017-Sep-13 21:56N 33°44' W 118°15'0 0.0
2017-Sep-13 21:23N 33°44' W 118°15'0 0.0
2017-Sep-13 20:56N 33°44' W 118°15'0 0.0
2017-Sep-13 20:26N 33°44' W 118°15'0 0.0
2017-Sep-13 19:56N 33°44' W 118°15'0 0.0
2017-Sep-13 19:26N 33°44' W 118°15'0 0.0
2017-Sep-13 18:50N 33°44' W 118°15'0 0.0
2017-Sep-13 18:26N 33°44' W 118°15'0 0.0
2017-Sep-13 17:56N 33°44' W 118°15'0 0.0
2017-Sep-13 17:26N 33°44' W 118°15'0 0.0
2017-Sep-13 16:56N 33°44' W 118°15'0 0.0
2017-Sep-13 16:26N 33°44' W 118°15'0 0.0
2017-Sep-13 15:50N 33°44' W 118°15'0 0.0
2017-Sep-13 15:26N 33°44' W 118°15'0 0.0
2017-Sep-13 14:56N 33°44' W 118°15'0 0.0
2017-Sep-13 14:26N 33°44' W 118°15'0 0.0
2017-Sep-13 13:56N 33°44' W 118°15'0 0.0
2017-Sep-13 13:26N 33°44' W 118°15'0 0.0
2017-Sep-13 12:44N 33°44' W 118°15'0 0.0
2017-Sep-13 12:14N 33°44' W 118°15'0 0.0
2017-Sep-13 11:50N 33°44' W 118°15'0 0.0
2017-Sep-13 11:26N 33°44' W 118°15'0 0.0
2017-Sep-13 10:56N 33°44' W 118°15'0 0.0
2017-Sep-13 10:26N 33°44' W 118°15'0 0.0
2017-Sep-13 10:00N 33°44' W 118°15'1 1.2
2017-Sep-13 09:30N 33°44' W 118°16'2 4.4
2017-Sep-13 09:00N 33°42' W 118°14'4 7.6
2017-Sep-13 08:29N 33°38' W 118°14'6 9.3
2017-Sep-13 07:52N 33°36' W 118°21'4 9.7
2017-Sep-13 07:28N 33°38' W 118°25'5 9.6
2017-Sep-13 07:00N 33°40' W 118°30'5 9.8
2017-Sep-13 06:29N 33°43' W 118°35'510.0
2017-Sep-13 05:59N 33°45' W 118°40'5 9.7
2017-Sep-13 05:30N 33°48' W 118°45'510.0
2017-Sep-13 05:00N 33°50' W 118°51'510.2
2017-Sep-13 04:30N 33°53' W 118°56'510.0
2017-Sep-13 04:00N 33°55' W 119°01'5 9.8
2017-Sep-13 03:30N 33°58' W 119°06'5 9.9
2017-Sep-13 03:00N 34°00' W 119°11'5 9.9
2017-Sep-13 02:30N 34°04' W 119°16'5 9.8
2017-Sep-13 02:00N 34°08' W 119°13'1 0.9
2017-Sep-13 00:55N 34°09' W 119°12'0 0.0
2017-Sep-12 15:31N 34°09' W 119°12'0 0.0
2017-Sep-12 15:22N 34°09' W 119°12'0 0.0
2017-Sep-12 14:10N 34°09' W 119°12'0 0.0
2017-Sep-12 13:58N 34°09' W 119°12'1 1.5
2017-Sep-12 13:30N 34°08' W 119°13'3 6.6
2017-Sep-12 13:00N 34°06' W 119°15'4 8.6
2017-Sep-12 12:30N 34°03' W 119°11'611.1
2017-Sep-12 12:00N 34°00' W 119°06'510.9
2017-Sep-12 11:30N 33°57' W 118°60'611.0
2017-Sep-12 11:00N 33°54' W 118°54'611.3
2017-Sep-12 10:30N 33°52' W 118°48'611.6
2017-Sep-12 10:00N 33°49' W 118°42'611.9
2017-Sep-12 09:30N 33°46' W 118°36'611.9
2017-Sep-12 09:00N 33°43' W 118°30'611.9
2017-Sep-12 08:30N 33°40' W 118°24'611.5
2017-Sep-12 08:00N 33°38' W 118°17'511.0
2017-Sep-12 07:30N 33°36' W 118°11'510.8
2017-Sep-12 07:00N 33°32' W 118°08'611.5
2017-Sep-12 06:30N 33°26' W 118°06'611.7
2017-Sep-12 06:00N 33°21' W 118°03'611.8
2017-Sep-12 05:30N 33°15' W 118°01'611.8
2017-Sep-12 05:00N 33°10' W 117°59'611.8
2017-Sep-12 04:30N 33°04' W 117°57'611.5
2017-Sep-12 04:00N 32°58' W 117°54'611.6
2017-Sep-12 03:30N 32°53' W 117°52'612.1
2017-Sep-12 03:00N 32°47' W 117°50'612.2
2017-Sep-12 02:30N 32°42' W 117°47'611.8
2017-Sep-12 02:00N 32°36' W 117°45'611.6
2017-Sep-12 01:30N 32°30' W 117°43'611.7
2017-Sep-12 01:00N 32°25' W 117°40'611.8
2017-Sep-12 00:30N 32°19' W 117°38'611.6
2017-Sep-12 00:00N 32°14' W 117°36'611.7
2017-Sep-11 23:30N 32°08' W 117°34'6 9.4
2017-Sep-11 22:52N 32°03' W 117°31'615.2
2017-Sep-11 22:27N 31°57' W 117°29'  

Dump ship's entire track history